createdAt,value
2023-04-23T00:01:02.400Z,14.40
2023-04-23T00:03:31.206Z,14.34
2023-04-23T00:06:01.001Z,14.28
2023-04-23T00:08:29.189Z,14.21
2023-04-23T00:10:57.833Z,14.13
2023-04-23T00:13:26.328Z,14.03
2023-04-23T00:15:54.735Z,13.97
2023-04-23T00:18:22.885Z,13.91
2023-04-23T00:20:51.079Z,13.87
2023-04-23T00:23:20.571Z,13.82
2023-04-23T00:25:49.802Z,13.79
2023-04-23T00:28:19.206Z,13.72
2023-04-23T00:30:48.934Z,13.68
2023-04-23T00:33:17.039Z,13.62
2023-04-23T00:35:45.105Z,13.59
2023-04-23T00:38:13.534Z,13.56
2023-04-23T00:40:43.014Z,13.54
2023-04-23T00:43:11.703Z,13.48
2023-04-23T00:45:40.392Z,13.45
2023-04-23T00:48:08.694Z,13.42
2023-04-23T00:50:37.344Z,13.36
2023-04-23T00:53:05.749Z,13.33
2023-04-23T00:55:34.358Z,13.32
2023-04-23T00:58:04.037Z,13.31
2023-04-23T01:00:32.201Z,13.25
2023-04-23T01:03:01.510Z,13.25
2023-04-23T01:05:30.700Z,13.24
2023-04-23T01:07:58.810Z,13.24
2023-04-23T01:10:26.895Z,13.21
2023-04-23T01:12:55.016Z,13.15
2023-04-23T01:15:24.704Z,13.14
2023-04-23T01:17:53.808Z,13.18
2023-04-23T01:20:21.974Z,13.18
2023-04-23T01:22:51.921Z,13.14
2023-04-23T01:25:20.153Z,13.08
2023-04-23T01:27:48.302Z,13.04
2023-04-23T01:30:16.700Z,12.99
2023-04-23T01:32:45.320Z,12.94
2023-04-23T01:35:14.196Z,12.89
2023-04-23T01:37:42.326Z,12.86
2023-04-23T01:40:12.496Z,12.81
2023-04-23T01:42:41.250Z,12.77
2023-04-23T01:45:11.226Z,12.75
2023-04-23T01:47:39.398Z,12.73
2023-04-23T01:50:08.629Z,12.75
2023-04-23T01:52:36.829Z,12.79
2023-04-23T01:55:05.466Z,12.79
2023-04-23T01:57:34.979Z,12.73
2023-04-23T02:00:08.519Z,12.71
2023-04-23T02:02:43.610Z,12.72
2023-04-23T02:05:12.644Z,12.67
2023-04-23T02:07:40.790Z,12.60
2023-04-23T02:10:10.356Z,12.54
2023-04-23T02:12:40.145Z,12.46
2023-04-23T02:15:11.379Z,12.43
2023-04-23T02:17:40.363Z,12.41
2023-04-23T02:20:09.861Z,12.46
2023-04-23T02:22:39.255Z,12.46
2023-04-23T02:25:08.384Z,12.56
2023-04-23T02:27:36.905Z,12.58
2023-04-23T02:30:09.345Z,12.61
2023-04-23T02:32:38.254Z,12.60
2023-04-23T02:35:08.010Z,12.57
2023-04-23T02:37:36.144Z,12.58
2023-04-23T02:40:05.128Z,12.60
2023-04-23T02:42:33.306Z,12.59
2023-04-23T02:45:01.475Z,12.59
2023-04-23T02:47:31.456Z,12.59
2023-04-23T02:49:59.620Z,12.62
2023-04-23T02:52:27.702Z,12.67
2023-04-23T02:54:56.264Z,12.67
2023-04-23T02:57:24.539Z,12.65
2023-04-23T02:59:52.783Z,12.72
2023-04-23T03:02:25.326Z,12.69
2023-04-23T03:04:55.292Z,12.71
2023-04-23T03:07:23.378Z,12.72
2023-04-23T03:09:51.841Z,12.68
2023-04-23T03:12:20.366Z,12.61
2023-04-23T03:14:48.492Z,12.57
2023-04-23T03:17:16.665Z,12.58
2023-04-23T03:19:45.021Z,12.60
2023-04-23T03:22:14.831Z,12.59
2023-04-23T03:24:43.981Z,12.58
2023-04-23T03:27:12.348Z,12.58
2023-04-23T03:29:40.446Z,12.57
2023-04-23T03:32:08.877Z,12.55
2023-04-23T03:34:37.024Z,12.51
2023-04-23T03:37:05.445Z,12.51
2023-04-23T03:39:38.895Z,12.50
2023-04-23T03:42:08.084Z,12.49
2023-04-23T03:44:37.928Z,12.47
2023-04-23T03:47:06.886Z,12.48
2023-04-23T03:49:36.548Z,12.43
2023-04-23T03:52:04.650Z,12.36
2023-04-23T03:54:34.237Z,12.33
2023-04-23T03:57:07.595Z,12.30
2023-04-23T03:59:46.910Z,12.29
2023-04-23T04:02:15.655Z,12.26
2023-04-23T04:04:46.612Z,12.27
2023-04-23T04:07:15.298Z,12.25
2023-04-23T04:09:43.430Z,12.24
2023-04-23T04:12:12.961Z,12.21
2023-04-23T04:14:44.391Z,12.21
2023-04-23T04:17:15.978Z,12.21
2023-04-23T04:19:44.220Z,12.21
2023-04-23T04:22:12.390Z,12.19
2023-04-23T04:24:42.221Z,12.17
2023-04-23T04:27:12.234Z,12.17
2023-04-23T04:29:41.084Z,12.20
2023-04-23T04:32:09.651Z,12.19
2023-04-23T04:34:38.493Z,12.17
2023-04-23T04:37:07.902Z,12.20
2023-04-23T04:39:36.053Z,12.21
2023-04-23T04:42:04.184Z,12.20
2023-04-23T04:44:34.218Z,12.23
2023-04-23T04:47:02.490Z,12.22
2023-04-23T04:49:30.700Z,12.24
2023-04-23T04:51:58.753Z,12.27
2023-04-23T04:54:26.838Z,12.27
2023-04-23T04:56:55.204Z,12.30
2023-04-23T04:59:23.318Z,12.32
2023-04-23T05:01:52.888Z,12.35
2023-04-23T05:04:21.156Z,12.38
2023-04-23T05:06:49.281Z,12.37
2023-04-23T05:09:17.774Z,12.37
2023-04-23T05:11:46.188Z,12.38
2023-04-23T05:14:14.354Z,12.39
2023-04-23T05:16:42.443Z,12.38
2023-04-23T05:19:12.058Z,12.39
2023-04-23T05:21:40.139Z,12.39
2023-04-23T05:24:08.802Z,12.40
2023-04-23T05:26:36.890Z,12.38
2023-04-23T05:29:05.083Z,12.40
2023-04-23T05:31:33.191Z,12.39
2023-04-23T05:34:01.349Z,12.42
2023-04-23T05:36:31.377Z,12.44
2023-04-23T05:38:59.968Z,12.49
2023-04-23T05:41:28.037Z,12.53
2023-04-23T05:43:56.167Z,12.58
2023-04-23T05:46:24.422Z,12.69
2023-04-23T05:48:53.704Z,12.75
2023-04-23T05:51:21.874Z,12.79
2023-04-23T05:53:51.761Z,12.81
2023-04-23T05:56:19.844Z,12.88
2023-04-23T05:58:48.013Z,12.89
2023-04-23T06:01:16.594Z,12.97
2023-04-23T06:03:45.724Z,12.99
2023-04-23T06:06:14.843Z,13.07
2023-04-23T06:08:42.969Z,13.13
2023-04-23T06:11:12.468Z,13.21
2023-04-23T06:13:43.902Z,13.28
2023-04-23T06:16:12.307Z,13.31
2023-04-23T06:18:40.600Z,13.26
2023-04-23T06:21:08.771Z,13.23
2023-04-23T06:23:37.116Z,13.23
2023-04-23T06:26:05.594Z,13.20
2023-04-23T06:28:35.214Z,13.17
2023-04-23T06:31:39.722Z,13.15
2023-04-23T06:34:07.916Z,13.16
2023-04-23T06:36:36.172Z,13.13
2023-04-23T06:39:04.597Z,13.08
2023-04-23T06:41:32.705Z,13.08
2023-04-23T06:44:11.358Z,13.13
2023-04-23T06:46:49.766Z,13.12
2023-04-23T06:49:17.841Z,13.13
2023-04-23T06:51:46.098Z,13.10
2023-04-23T06:54:14.241Z,13.02
2023-04-23T06:56:42.411Z,13.00
2023-04-23T06:59:11.890Z,13.00
2023-04-23T07:01:48.051Z,12.95
2023-04-23T07:04:16.193Z,12.92
2023-04-23T07:06:44.331Z,12.90
2023-04-23T07:09:12.972Z,12.89
2023-04-23T07:11:41.060Z,12.86
2023-04-23T07:14:10.989Z,12.81
2023-04-23T07:16:39.157Z,12.79
2023-04-23T07:19:07.373Z,12.77
2023-04-23T07:21:36.018Z,12.64
2023-04-23T07:24:06.989Z,12.61
2023-04-23T07:26:35.417Z,12.59
2023-04-23T07:29:04.033Z,12.66
2023-04-23T07:31:33.533Z,12.75
2023-04-23T07:34:01.740Z,12.85
2023-04-23T07:36:29.921Z,12.96
2023-04-23T07:38:58.063Z,13.07
2023-04-23T07:41:26.534Z,13.03
2023-04-23T07:43:54.653Z,13.09
2023-04-23T07:46:22.823Z,13.06
2023-04-23T07:48:53.114Z,13.07
2023-04-23T07:51:22.572Z,13.13
2023-04-23T07:53:51.340Z,13.25
2023-04-23T07:56:19.923Z,13.31
2023-04-23T07:58:48.029Z,13.47
2023-04-23T08:01:16.187Z,13.59
2023-04-23T08:03:44.516Z,13.74
2023-04-23T08:06:14.185Z,13.70
2023-04-23T08:08:42.893Z,13.62
2023-04-23T08:11:11.108Z,13.60
2023-04-23T08:13:39.222Z,13.53
2023-04-23T08:16:08.083Z,13.45
2023-04-23T08:18:36.397Z,13.30
2023-04-23T08:21:04.571Z,13.36
2023-04-23T08:23:34.079Z,13.51
2023-04-23T08:26:02.927Z,13.65
2023-04-23T08:28:31.046Z,13.81
2023-04-23T08:30:59.199Z,13.81
2023-04-23T08:33:27.394Z,13.88
2023-04-23T08:35:55.888Z,13.99
2023-04-23T08:38:23.989Z,14.02
2023-04-23T08:40:54.808Z,14.17
2023-04-23T08:43:22.887Z,14.30
2023-04-23T08:45:51.076Z,14.28
2023-04-23T08:48:19.187Z,14.23
2023-04-23T08:50:47.775Z,14.25
2023-04-23T08:53:17.791Z,14.30
2023-04-23T08:55:45.904Z,14.21
2023-04-23T08:58:15.497Z,14.11
2023-04-23T09:00:43.749Z,14.02
2023-04-23T09:03:12.612Z,13.96
2023-04-23T09:05:40.919Z,13.90
2023-04-23T09:08:09.112Z,13.75
2023-04-23T09:10:37.530Z,13.74
2023-04-23T09:13:05.646Z,13.66
2023-04-23T09:15:38.767Z,13.59
2023-04-23T09:18:07.299Z,13.51
2023-04-23T09:20:36.110Z,13.33
2023-04-23T09:23:08.201Z,13.18
2023-04-23T09:25:36.608Z,12.96
2023-04-23T09:28:05.008Z,12.78
2023-04-23T09:30:44.365Z,12.69
2023-04-23T09:33:13.103Z,12.64
2023-04-23T09:35:42.389Z,12.64
2023-04-23T09:38:10.804Z,12.71
2023-04-23T09:40:39.021Z,12.77
2023-04-23T09:43:07.557Z,12.87
2023-04-23T09:45:38.018Z,12.95
2023-04-23T09:48:06.993Z,13.02
2023-04-23T09:50:36.817Z,13.08
2023-04-23T09:53:05.127Z,13.17
2023-04-23T09:55:35.814Z,13.17
2023-04-23T09:58:05.127Z,13.08
2023-04-23T10:00:38.530Z,13.00
2023-04-23T10:03:07.997Z,13.07
2023-04-23T10:05:56.280Z,13.25
2023-04-23T10:08:27.528Z,13.49
2023-04-23T10:11:09.679Z,14.20
2023-04-23T10:13:43.764Z,15.08
2023-04-23T10:16:22.315Z,15.75
2023-04-23T10:18:53.081Z,16.26
2023-04-23T10:21:21.618Z,16.43
2023-04-23T10:23:49.741Z,16.58
2023-04-23T10:26:18.248Z,16.90
2023-04-23T10:28:49.279Z,17.34
2023-04-23T10:31:18.893Z,17.73
2023-04-23T10:33:59.196Z,17.58
2023-04-23T10:36:29.208Z,17.50
2023-04-23T10:39:01.284Z,17.56
2023-04-23T10:41:32.441Z,17.84
2023-04-23T10:44:00.537Z,17.78
2023-04-23T10:46:33.481Z,17.38
2023-04-23T10:49:14.458Z,17.20
2023-04-23T10:54:16.358Z,18.04
2023-04-23T10:56:44.677Z,18.27
2023-04-23T10:59:22.827Z,18.26
2023-04-23T11:01:52.785Z,17.93
2023-04-23T11:04:22.376Z,17.85
2023-04-23T11:06:58.360Z,17.86
2023-04-23T11:09:30.477Z,17.92
2023-04-23T11:11:59.110Z,17.71
2023-04-23T11:14:35.920Z,17.57
2023-04-23T11:17:06.828Z,17.29
2023-04-23T11:19:37.079Z,17.00
2023-04-23T11:22:08.311Z,16.86
2023-04-23T11:24:41.857Z,16.94
2023-04-23T11:27:10.672Z,16.66
2023-04-23T11:29:39.028Z,16.67
2023-04-23T11:32:10.880Z,16.57
2023-04-23T11:34:40.475Z,16.58
2023-04-23T11:37:10.973Z,16.46
2023-04-23T11:39:40.804Z,16.41
2023-04-23T11:42:11.802Z,16.36
2023-04-23T11:44:40.139Z,16.33
2023-04-23T11:47:11.270Z,16.51
2023-04-23T11:49:39.862Z,16.59
2023-04-23T11:52:08.458Z,16.58
2023-04-23T11:54:36.792Z,16.44
2023-04-23T11:57:05.969Z,16.35
2023-04-23T11:59:36.686Z,16.24
2023-04-23T12:02:05.413Z,16.26
2023-04-23T12:04:35.059Z,16.25
2023-04-23T12:07:10.165Z,16.67
2023-04-23T12:09:44.324Z,17.21
2023-04-23T12:12:12.462Z,17.58
2023-04-23T12:14:40.910Z,17.56
2023-04-23T12:17:12.456Z,17.98
2023-04-23T12:19:44.910Z,17.99
2023-04-23T12:22:13.619Z,18.04
2023-04-23T12:24:48.829Z,17.79
2023-04-23T12:27:20.403Z,17.65
2023-04-23T12:29:49.261Z,17.61
2023-04-23T12:32:19.173Z,17.37
2023-04-23T12:34:54.648Z,17.43
2023-04-23T12:37:25.510Z,17.41
2023-04-23T12:39:55.520Z,17.33
2023-04-23T12:42:24.100Z,17.23
2023-04-23T12:44:52.621Z,17.01
2023-04-23T12:47:20.782Z,17.27
2023-04-23T12:49:53.516Z,17.50
2023-04-23T12:52:23.707Z,17.65
2023-04-23T12:54:56.379Z,17.73
2023-04-23T12:57:24.812Z,17.49
2023-04-23T12:59:54.992Z,17.44
2023-04-23T13:02:24.298Z,17.48
2023-04-23T13:04:54.534Z,17.40
2023-04-23T13:07:24.091Z,17.60
2023-04-23T13:09:52.537Z,17.79
2023-04-23T13:12:20.641Z,17.94
2023-04-23T13:14:48.756Z,17.81
2023-04-23T13:17:16.952Z,17.85
2023-04-23T13:19:45.037Z,17.69
2023-04-23T13:22:13.163Z,17.59
2023-04-23T13:24:42.784Z,17.63
2023-04-23T13:27:11.166Z,17.47
2023-04-23T13:29:40.517Z,17.29
2023-04-23T13:32:09.418Z,17.48
2023-04-23T13:34:37.623Z,17.62
2023-04-23T13:37:09.409Z,17.65
2023-04-23T13:39:39.890Z,17.70
2023-04-23T13:42:11.520Z,17.63
2023-04-23T13:44:39.748Z,17.70
2023-04-23T13:47:08.416Z,17.84
2023-04-23T13:49:37.153Z,18.00
2023-04-23T13:52:07.105Z,18.12
2023-04-23T13:54:35.675Z,18.29
2023-04-23T13:57:04.013Z,18.18
2023-04-23T13:59:33.560Z,18.11
2023-04-23T14:02:01.676Z,18.12
2023-04-23T14:04:30.172Z,17.99
2023-04-23T14:06:58.344Z,17.74
2023-04-23T14:09:26.664Z,17.65
2023-04-23T14:11:54.932Z,17.45
2023-04-23T14:14:23.051Z,17.40
2023-04-23T14:16:52.954Z,17.37
2023-04-23T14:19:21.096Z,17.53
2023-04-23T14:21:49.219Z,17.67
2023-04-23T14:24:18.948Z,17.76
2023-04-23T14:26:49.991Z,17.67
2023-04-23T14:29:26.372Z,17.57
2023-04-23T14:31:56.114Z,17.39
2023-04-23T14:34:24.233Z,17.29
2023-04-23T14:36:53.329Z,17.17
2023-04-23T14:39:23.055Z,17.07
2023-04-23T14:41:51.563Z,16.97
2023-04-23T14:44:20.024Z,16.87
2023-04-23T14:46:49.981Z,16.79
2023-04-23T14:49:20.842Z,16.86
2023-04-23T14:51:50.841Z,17.13
2023-04-23T14:54:18.999Z,17.33
2023-04-23T14:56:47.123Z,17.32
2023-04-23T14:59:15.632Z,17.19
2023-04-23T15:01:43.868Z,17.16
2023-04-23T15:04:12.262Z,17.18
2023-04-23T15:06:41.891Z,17.22
2023-04-23T15:09:10.297Z,17.21
2023-04-23T15:11:39.128Z,17.21
2023-04-23T15:14:09.166Z,17.20
2023-04-23T15:16:47.714Z,17.36
2023-04-23T15:19:18.120Z,17.51
2023-04-23T15:21:48.047Z,17.53
2023-04-23T15:24:16.401Z,17.54
2023-04-23T15:26:45.935Z,17.56
2023-04-23T15:29:14.515Z,17.45
2023-04-23T15:31:42.864Z,17.50
2023-04-23T15:34:12.356Z,17.62
2023-04-23T15:36:40.720Z,17.71
2023-04-23T15:39:10.338Z,17.61
2023-04-23T15:41:41.015Z,17.53
2023-04-23T15:44:11.862Z,17.51
2023-04-23T15:46:40.320Z,17.36
2023-04-23T15:49:08.467Z,17.15
2023-04-23T15:51:36.755Z,17.13
2023-04-23T15:54:08.475Z,17.14
2023-04-23T15:56:38.739Z,17.04
2023-04-23T15:59:07.780Z,17.07
2023-04-23T16:01:36.195Z,17.19
2023-04-23T16:06:37.243Z,16.95
2023-04-23T16:09:08.312Z,16.71
2023-04-23T16:11:39.548Z,16.60
2023-04-23T16:14:10.170Z,16.57
2023-04-23T16:16:39.413Z,16.58
2023-04-23T16:19:07.646Z,16.53
2023-04-23T16:21:35.867Z,16.45
2023-04-23T16:24:07.709Z,16.36
2023-04-23T16:26:36.545Z,16.28
2023-04-23T16:29:21.439Z,16.19
2023-04-23T16:31:53.158Z,16.16
2023-04-23T16:34:21.804Z,16.10
2023-04-23T16:36:50.938Z,16.00
2023-04-23T16:39:20.076Z,16.01
2023-04-23T16:41:48.213Z,16.07
2023-04-23T16:44:17.758Z,16.08
2023-04-23T16:46:46.353Z,16.10
2023-04-23T16:49:14.695Z,16.05
2023-04-23T16:51:42.815Z,15.96
2023-04-23T16:54:11.059Z,15.89
2023-04-23T16:56:39.202Z,15.79
2023-04-23T16:59:07.295Z,15.66
2023-04-23T17:01:37.263Z,15.54
2023-04-23T17:04:05.625Z,15.41
2023-04-23T17:06:34.056Z,15.34
2023-04-23T17:09:03.242Z,15.21
2023-04-23T17:11:31.564Z,15.16
2023-04-23T17:13:59.669Z,15.08
2023-04-23T17:16:29.131Z,15.02
2023-04-23T17:18:58.736Z,14.97
2023-04-23T17:21:27.371Z,14.93
2023-04-23T17:23:55.673Z,14.85
2023-04-23T17:26:23.913Z,14.82
2023-04-23T17:28:52.655Z,14.78
2023-04-23T17:31:20.983Z,14.71
2023-04-23T17:33:50.453Z,14.65
2023-04-23T17:36:19.990Z,14.58
2023-04-23T17:38:48.133Z,14.50
2023-04-23T17:41:17.467Z,14.46
2023-04-23T17:43:46.164Z,14.39
2023-04-23T17:46:14.325Z,14.30
2023-04-23T17:48:42.489Z,14.20
2023-04-23T17:51:10.635Z,14.16
2023-04-23T17:53:42.014Z,14.06
2023-04-23T17:56:11.060Z,14.01
2023-04-23T17:58:39.223Z,13.96
2023-04-23T18:01:09.012Z,13.84
2023-04-23T18:03:37.842Z,13.71
2023-04-23T18:06:08.824Z,13.58
2023-04-23T18:08:41.268Z,13.46
2023-04-23T18:11:11.385Z,13.34
2023-04-23T18:13:39.606Z,13.29
2023-04-23T18:16:07.684Z,13.20
2023-04-23T18:18:35.849Z,13.10
2023-04-23T18:21:05.140Z,12.96
2023-04-23T18:23:33.435Z,12.87
2023-04-23T18:26:03.025Z,12.81
2023-04-23T18:28:31.214Z,12.78
2023-04-23T18:31:02.611Z,12.69
2023-04-23T18:33:32.814Z,12.62
2023-04-23T18:36:04.078Z,12.55
2023-04-23T18:38:33.137Z,12.51
2023-04-23T18:41:04.554Z,12.49
2023-04-23T18:43:34.161Z,12.49
2023-04-23T18:46:02.856Z,12.35
2023-04-23T18:48:44.668Z,12.23
2023-04-23T18:51:21.351Z,12.12
2023-04-23T18:53:49.667Z,12.02
2023-04-23T18:56:19.213Z,11.92
2023-04-23T18:58:47.333Z,11.80
2023-04-23T19:01:15.682Z,11.70
2023-04-23T19:03:43.997Z,11.61
2023-04-23T19:06:12.715Z,11.57
2023-04-23T19:08:42.400Z,11.48
2023-04-23T19:11:11.313Z,11.42
2023-04-23T19:13:40.881Z,11.39
2023-04-23T19:16:10.159Z,11.44
2023-04-23T19:18:39.404Z,11.43
2023-04-23T19:21:08.069Z,11.46
2023-04-23T19:23:36.264Z,11.47
2023-04-23T19:26:04.621Z,11.45
2023-04-23T19:28:32.792Z,11.42
2023-04-23T19:31:02.413Z,11.37
2023-04-23T19:33:30.921Z,11.28
2023-04-23T19:35:59.094Z,11.28
2023-04-23T19:38:27.281Z,11.29
2023-04-23T19:40:55.735Z,11.37
2023-04-23T19:43:23.900Z,11.42
2023-04-23T19:45:52.619Z,11.42
2023-04-23T19:48:22.235Z,11.42
2023-04-23T19:50:50.345Z,11.50
2023-04-23T19:53:22.107Z,11.48
2023-04-23T19:55:50.497Z,11.46
2023-04-23T19:58:18.835Z,11.44
2023-04-23T20:00:47.326Z,11.41
2023-04-23T20:03:15.699Z,11.35
2023-04-23T20:05:46.261Z,11.35
2023-04-23T20:08:25.730Z,11.32
2023-04-23T20:10:54.194Z,11.24
2023-04-23T20:13:23.825Z,11.18
2023-04-23T20:15:55.121Z,11.14
2023-04-23T20:18:25.715Z,11.13
2023-04-23T20:20:55.820Z,11.16
2023-04-23T20:23:24.076Z,11.15
2023-04-23T20:25:52.250Z,11.22
2023-04-23T20:28:20.796Z,11.29
2023-04-23T20:30:48.936Z,11.29
2023-04-23T20:33:18.739Z,11.26
2023-04-23T20:35:47.809Z,11.23
2023-04-23T20:38:19.263Z,11.20
2023-04-23T20:40:48.042Z,11.24
2023-04-23T20:43:16.602Z,11.26
2023-04-23T20:45:46.724Z,11.32
2023-04-23T20:48:15.405Z,11.34
2023-04-23T20:50:43.586Z,11.37
2023-04-23T20:53:11.807Z,11.39
2023-04-23T20:55:41.772Z,11.42
2023-04-23T20:58:09.890Z,11.44
2023-04-23T21:00:38.063Z,11.44
2023-04-23T21:03:06.479Z,11.44
2023-04-23T21:05:34.721Z,11.51
2023-04-23T21:08:03.253Z,11.52
2023-04-23T21:10:31.387Z,11.57
2023-04-23T21:13:00.975Z,11.63
2023-04-23T21:15:29.737Z,11.66
2023-04-23T21:17:57.908Z,11.69
2023-04-23T21:20:26.019Z,11.70
2023-04-23T21:22:54.586Z,11.70
2023-04-23T21:25:22.682Z,11.73
2023-04-23T21:27:50.828Z,11.75
2023-04-23T21:30:24.015Z,11.82
2023-04-23T21:32:52.411Z,11.85
2023-04-23T21:35:20.934Z,11.82
2023-04-23T21:37:49.068Z,11.83
2023-04-23T21:40:17.212Z,11.89
2023-04-23T21:42:46.438Z,11.92
2023-04-23T21:45:14.546Z,11.93
2023-04-23T21:47:44.152Z,11.89
2023-04-23T21:50:13.497Z,11.91
2023-04-23T21:52:43.242Z,11.91
2023-04-23T21:55:12.299Z,11.96
2023-04-23T21:57:40.576Z,11.95
2023-04-23T22:00:13.945Z,11.98
2023-04-23T22:02:46.577Z,11.98
2023-04-23T22:05:17.032Z,12.03
2023-04-23T22:07:45.338Z,12.09
2023-04-23T22:10:14.977Z,12.07
2023-04-23T22:12:43.170Z,11.96
2023-04-23T22:15:13.112Z,11.80
2023-04-23T22:17:43.616Z,11.67
2023-04-23T22:20:12.562Z,11.60
2023-04-23T22:22:41.594Z,11.52
2023-04-23T22:25:10.539Z,11.49
2023-04-23T22:27:39.477Z,11.42
2023-04-23T22:30:09.219Z,11.37
2023-04-23T22:32:37.503Z,11.35
2023-04-23T22:35:07.928Z,11.33
2023-04-23T22:37:36.101Z,11.28
2023-04-23T22:40:05.052Z,11.24
2023-04-23T22:42:33.194Z,11.23
2023-04-23T22:45:01.865Z,11.16
2023-04-23T22:47:30.163Z,11.12
2023-04-23T22:49:58.934Z,11.04
2023-04-23T22:52:28.519Z,11.04
2023-04-23T22:54:56.901Z,11.01
2023-04-23T22:57:25.461Z,10.95
2023-04-23T22:59:53.566Z,10.94
2023-04-23T23:02:21.739Z,10.88
2023-04-23T23:04:49.963Z,10.87
2023-04-23T23:07:18.099Z,10.86
2023-04-23T23:09:47.717Z,10.84
2023-04-23T23:12:16.242Z,10.82
2023-04-23T23:14:44.368Z,10.78
2023-04-23T23:17:12.498Z,10.74
2023-04-23T23:19:41.385Z,10.70
2023-04-23T23:22:09.698Z,10.67
2023-04-23T23:24:38.261Z,10.63
2023-04-23T23:27:07.738Z,10.61
2023-04-23T23:29:35.850Z,10.58
2023-04-23T23:32:04.146Z,10.54
2023-04-23T23:34:32.257Z,10.49
2023-04-23T23:37:00.446Z,10.51
2023-04-23T23:39:28.975Z,10.47
2023-04-23T23:41:59.532Z,10.46
2023-04-23T23:44:29.389Z,10.43
2023-04-23T23:46:57.613Z,10.42
2023-04-23T23:49:25.940Z,10.43
2023-04-23T23:51:54.388Z,10.40
2023-04-23T23:54:22.555Z,10.37
2023-04-23T23:56:50.656Z,10.35
2023-04-23T23:59:18.743Z,10.32
